Terminal Aerodrome Forecast
Issued by NWS Pocatello, ID

Home | Current Version | Previous Version | Text Only | Print | Product List | Glossary On
Versions: 1 2 3 4 5 6 7 8 9 10 11 12 13 14 15 16 17 18
607
FTUS45 KPIH 300634 AAA
TAFPIH
TAF AMD
KPIH 300634Z 3007/3106 19015G25KT P6SM VCSH BKN040 OVC080
     FM300900 21014G24KT 6SM -SHRA BR BKN010 OVC020
     FM301500 20014G24KT P6SM VCSH BKN030 OVC060
     FM302100 25018G28KT 6SM -SHRA BR BKN010 OVC020
     FM310200 24010KT P6SM VCSH BKN020 OVC040=

USA.gov is the U.S. government's official web portal to all federal, state and local government web resources and services.